createdAt,value
2023-02-19T00:00:36.567Z,98583.00
2023-02-19T00:03:05.451Z,98575.00
2023-02-19T00:05:36.612Z,98571.00
2023-02-19T00:08:05.606Z,98582.00
2023-02-19T00:10:34.371Z,98571.00
2023-02-19T00:13:03.233Z,98566.00
2023-02-19T00:15:35.639Z,98568.00
2023-02-19T00:18:04.352Z,98565.00
2023-02-19T00:20:32.986Z,98562.00
2023-02-19T00:23:01.598Z,98576.00
2023-02-19T00:25:30.168Z,98573.00
2023-02-19T00:27:58.811Z,98572.00
2023-02-19T00:30:27.453Z,98578.00
2023-02-19T00:32:57.914Z,98577.00
2023-02-19T00:35:26.506Z,98558.00
2023-02-19T00:37:55.074Z,98568.00
2023-02-19T00:40:26.110Z,98556.00
2023-02-19T00:42:55.424Z,98548.00
2023-02-19T00:45:24.132Z,98546.00
2023-02-19T00:47:52.800Z,98550.00
2023-02-19T00:50:22.996Z,98557.00
2023-02-19T00:52:51.666Z,98544.00
2023-02-19T00:55:20.480Z,98545.00
2023-02-19T00:57:49.742Z,98538.00
2023-02-19T01:00:18.694Z,98544.00
2023-02-19T01:02:47.417Z,98549.00
2023-02-19T01:05:16.578Z,98534.00
2023-02-19T01:07:46.654Z,98535.00
2023-02-19T01:10:15.428Z,98543.00
2023-02-19T01:12:44.212Z,98537.00
2023-02-19T01:15:12.981Z,98515.00
2023-02-19T01:17:41.706Z,98534.00
2023-02-19T01:20:11.530Z,98546.00
2023-02-19T01:22:40.247Z,98539.00
2023-02-19T01:25:10.831Z,98543.00
2023-02-19T01:27:39.415Z,98539.00
2023-02-19T01:30:09.434Z,98526.00
2023-02-19T01:32:38.220Z,98534.00
2023-02-19T01:35:07.935Z,98529.00
2023-02-19T01:37:37.340Z,98530.00
2023-02-19T01:40:07.025Z,98522.00
2023-02-19T01:42:37.031Z,98517.00
2023-02-19T01:45:30.647Z,98517.00
2023-02-19T01:48:11.682Z,98516.00
2023-02-19T01:50:47.082Z,98503.00
2023-02-19T01:53:23.082Z,98510.00
2023-02-19T01:55:57.374Z,98511.00
2023-02-19T01:58:34.858Z,98510.00
2023-02-19T02:01:07.305Z,98518.00
2023-02-19T02:03:39.487Z,98501.00
2023-02-19T02:06:18.358Z,98516.00
2023-02-19T02:09:04.184Z,98506.00
2023-02-19T02:11:33.395Z,98497.00
2023-02-19T02:14:05.029Z,98508.00
2023-02-19T02:16:50.431Z,98472.00
2023-02-19T02:19:45.096Z,98504.00
2023-02-19T02:22:22.331Z,98499.00
2023-02-19T02:25:28.925Z,98498.00
2023-02-19T02:28:23.396Z,98504.00
2023-02-19T02:30:58.171Z,98503.00
2023-02-19T02:33:39.742Z,98494.00
2023-02-19T02:36:16.092Z,98498.00
2023-02-19T02:38:48.625Z,98495.00
2023-02-19T02:41:18.354Z,98493.00
2023-02-19T02:43:46.998Z,98492.00
2023-02-19T02:46:27.400Z,98489.00
2023-02-19T02:49:01.324Z,98494.00
2023-02-19T02:51:36.898Z,98496.00
2023-02-19T02:54:30.428Z,98490.00
2023-02-19T02:57:03.369Z,98492.00
2023-02-19T02:59:41.427Z,98492.00
2023-02-19T03:02:21.569Z,98483.00
2023-02-19T03:05:16.371Z,98495.00
2023-02-19T03:07:53.683Z,98477.00
2023-02-19T03:10:30.553Z,98477.00
2023-02-19T03:13:19.927Z,98477.00
2023-02-19T03:16:17.041Z,98472.00
2023-02-19T03:19:10.280Z,98481.00
2023-02-19T03:21:42.735Z,98477.00
2023-02-19T03:24:33.429Z,98473.00
2023-02-19T03:27:08.603Z,98482.00
2023-02-19T03:29:45.969Z,98479.00
2023-02-19T03:32:23.242Z,98491.00
2023-02-19T03:35:01.050Z,98494.00
2023-02-19T03:37:40.139Z,98485.00
2023-02-19T03:40:10.647Z,98488.00
2023-02-19T03:42:51.191Z,98479.00
2023-02-19T03:45:36.463Z,98492.00
2023-02-19T03:48:24.409Z,98486.00
2023-02-19T03:51:09.938Z,98496.00
2023-02-19T03:53:55.102Z,98487.00
2023-02-19T03:56:35.696Z,98486.00
2023-02-19T03:59:16.566Z,98488.00
2023-02-19T04:01:52.674Z,98482.00
2023-02-19T04:04:30.292Z,98487.00
2023-02-19T04:07:05.120Z,98485.00
2023-02-19T04:09:42.725Z,98476.00
2023-02-19T04:12:18.009Z,98479.00
2023-02-19T04:14:54.765Z,98479.00
2023-02-19T04:17:30.821Z,98475.00
2023-02-19T04:20:03.989Z,98475.00
2023-02-19T04:22:35.642Z,98476.00
2023-02-19T04:25:04.973Z,98477.00
2023-02-19T04:27:34.953Z,98474.00
2023-02-19T04:30:03.701Z,98468.00
2023-02-19T04:32:32.878Z,98479.00
2023-02-19T04:35:01.544Z,98471.00
2023-02-19T04:37:30.354Z,98467.00
2023-02-19T04:40:00.390Z,98468.00
2023-02-19T04:42:29.775Z,98463.00
2023-02-19T04:45:00.483Z,98477.00
2023-02-19T04:47:29.139Z,98475.00
2023-02-19T04:50:00.197Z,98477.00
2023-02-19T04:52:29.024Z,98463.00
2023-02-19T04:54:59.079Z,98471.00
2023-02-19T04:57:27.757Z,98475.00
2023-02-19T04:59:56.664Z,98468.00
2023-02-19T05:02:26.107Z,98473.00
2023-02-19T05:04:55.206Z,98472.00
2023-02-19T05:07:25.903Z,98472.00
2023-02-19T05:09:56.858Z,98465.00
2023-02-19T05:12:27.493Z,98485.00
2023-02-19T05:14:58.648Z,98453.00
2023-02-19T05:17:28.636Z,98477.00
2023-02-19T05:19:57.859Z,98478.00
2023-02-19T05:22:26.566Z,98470.00
2023-02-19T05:24:55.180Z,98464.00
2023-02-19T05:27:24.000Z,98474.00
2023-02-19T05:29:54.059Z,98474.00
2023-02-19T05:32:22.780Z,98474.00
2023-02-19T05:34:52.919Z,98473.00
2023-02-19T05:37:21.640Z,98476.00
2023-02-19T05:39:50.704Z,98477.00
2023-02-19T05:42:19.473Z,98486.00
2023-02-19T05:44:48.295Z,98490.00
2023-02-19T05:47:18.280Z,98477.00
2023-02-19T05:49:46.910Z,98488.00
2023-02-19T05:52:15.539Z,98476.00
2023-02-19T05:54:44.209Z,98473.00
2023-02-19T05:57:14.025Z,98478.00
2023-02-19T05:59:42.728Z,98477.00
2023-02-19T06:02:11.620Z,98487.00
2023-02-19T06:04:41.655Z,98489.00
2023-02-19T06:07:10.755Z,98483.00
2023-02-19T06:09:39.394Z,98488.00
2023-02-19T06:12:09.249Z,98483.00
2023-02-19T06:14:37.996Z,98482.00
2023-02-19T06:17:06.611Z,98475.00
2023-02-19T06:19:35.225Z,98490.00
2023-02-19T06:22:05.308Z,98482.00
2023-02-19T06:24:34.378Z,98490.00
2023-02-19T06:27:03.025Z,98476.00
2023-02-19T06:29:32.584Z,98487.00
2023-02-19T06:32:01.419Z,98476.00
2023-02-19T06:34:30.072Z,98480.00
2023-02-19T06:36:59.791Z,98485.00
2023-02-19T06:39:30.439Z,98481.00
2023-02-19T06:42:01.692Z,98487.00
2023-02-19T06:44:30.433Z,98481.00
2023-02-19T06:46:59.333Z,98487.00
2023-02-19T06:49:29.901Z,98485.00
2023-02-19T06:52:02.050Z,98491.00
2023-02-19T06:54:34.770Z,98495.00
2023-02-19T06:57:12.917Z,98495.00
2023-02-19T06:59:56.689Z,98498.00
2023-02-19T07:02:25.513Z,98496.00
2023-02-19T07:04:54.504Z,98503.00
2023-02-19T07:07:23.774Z,98494.00
2023-02-19T07:09:56.371Z,98494.00
2023-02-19T07:12:25.250Z,98495.00
2023-02-19T07:14:53.861Z,98506.00
2023-02-19T07:17:24.486Z,98504.00
2023-02-19T07:19:53.486Z,98502.00
2023-02-19T07:22:22.155Z,98517.00
2023-02-19T07:24:53.870Z,98514.00
2023-02-19T07:27:22.486Z,98517.00
2023-02-19T07:29:51.100Z,98519.00
2023-02-19T07:32:19.720Z,98523.00
2023-02-19T07:34:49.623Z,98517.00
2023-02-19T07:37:18.224Z,98515.00
2023-02-19T07:39:47.551Z,98516.00
2023-02-19T07:42:17.880Z,98531.00
2023-02-19T07:44:46.514Z,98520.00
2023-02-19T07:47:15.116Z,98527.00
2023-02-19T07:49:43.745Z,98529.00
2023-02-19T07:52:13.963Z,98529.00
2023-02-19T07:54:42.640Z,98530.00
2023-02-19T07:57:11.816Z,98540.00
2023-02-19T07:59:41.869Z,98537.00
2023-02-19T08:02:34.986Z,98528.00
2023-02-19T08:05:03.814Z,98538.00
2023-02-19T08:07:33.942Z,98527.00
2023-02-19T08:10:16.852Z,98542.00
2023-02-19T08:13:03.054Z,98548.00
2023-02-19T08:15:34.502Z,98537.00
2023-02-19T08:18:03.238Z,98547.00
2023-02-19T08:20:31.976Z,98550.00
2023-02-19T08:23:00.654Z,98540.00
2023-02-19T08:25:29.301Z,98550.00
2023-02-19T08:27:57.935Z,98536.00
2023-02-19T08:30:26.759Z,98552.00
2023-02-19T08:32:57.317Z,98558.00
2023-02-19T08:35:25.975Z,98556.00
2023-02-19T08:37:58.242Z,98562.00
2023-02-19T08:40:29.984Z,98566.00
2023-02-19T08:43:06.362Z,98552.00
2023-02-19T08:45:35.227Z,98556.00
2023-02-19T08:48:06.227Z,98551.00
2023-02-19T08:50:35.513Z,98561.00
2023-02-19T08:53:06.176Z,98554.00
2023-02-19T08:55:35.403Z,98563.00
2023-02-19T08:58:05.451Z,98565.00
2023-02-19T09:03:24.977Z,98566.00
2023-02-19T09:05:54.242Z,98577.00
2023-02-19T09:08:22.852Z,98575.00
2023-02-19T09:11:00.631Z,98577.00
2023-02-19T09:13:29.765Z,98586.00
2023-02-19T09:15:58.537Z,98585.00
2023-02-19T09:18:28.626Z,98590.00
2023-02-19T09:21:01.330Z,98594.00
2023-02-19T09:23:30.174Z,98592.00
2023-02-19T09:26:01.675Z,98602.00
2023-02-19T09:28:33.975Z,98587.00
2023-02-19T09:31:07.840Z,98591.00
2023-02-19T09:33:40.075Z,98593.00
2023-02-19T09:36:11.570Z,98591.00
2023-02-19T09:38:40.843Z,98584.00
2023-02-19T09:41:19.929Z,98607.00
2023-02-19T09:43:51.685Z,98596.00
2023-02-19T09:46:32.636Z,98603.00
2023-02-19T09:49:09.299Z,98602.00
2023-02-19T09:51:43.192Z,98591.00
2023-02-19T09:54:25.352Z,98604.00
2023-02-19T09:56:59.215Z,98618.00
2023-02-19T09:59:33.016Z,98609.00
2023-02-19T10:02:06.844Z,98617.00
2023-02-19T10:04:37.120Z,98620.00
2023-02-19T10:07:08.480Z,98618.00
2023-02-19T10:09:38.990Z,98628.00
2023-02-19T10:12:17.532Z,98622.00
2023-02-19T10:14:51.545Z,98631.00
2023-02-19T10:17:27.084Z,98626.00
2023-02-19T10:19:59.331Z,98630.00
2023-02-19T10:22:28.422Z,98629.00
2023-02-19T10:24:58.170Z,98629.00
2023-02-19T10:27:31.023Z,98635.00
2023-02-19T10:30:02.115Z,98630.00
2023-02-19T10:32:32.812Z,98641.00
2023-02-19T10:35:14.766Z,98640.00
2023-02-19T10:37:46.310Z,98637.00
2023-02-19T10:40:21.835Z,98640.00
2023-02-19T10:42:54.295Z,98643.00
2023-02-19T10:45:27.046Z,98653.00
2023-02-19T10:48:00.198Z,98647.00
2023-02-19T10:50:39.380Z,98639.00
2023-02-19T10:53:24.873Z,98649.00
2023-02-19T10:56:09.635Z,98652.00
2023-02-19T10:58:40.304Z,98645.00
2023-02-19T11:01:20.772Z,98649.00
2023-02-19T11:03:51.420Z,98651.00
2023-02-19T11:06:28.091Z,98654.00
2023-02-19T11:09:00.608Z,98656.00
2023-02-19T11:11:36.277Z,98649.00
2023-02-19T11:14:15.603Z,98639.00
2023-02-19T11:16:48.924Z,98649.00
2023-02-19T11:19:40.178Z,98660.00
2023-02-19T11:22:33.284Z,98663.00
2023-02-19T11:25:25.512Z,98668.00
2023-02-19T11:28:08.257Z,98672.00
2023-02-19T11:30:41.174Z,98670.00
2023-02-19T11:33:27.288Z,98676.00
2023-02-19T11:36:18.005Z,98673.00
2023-02-19T11:38:48.402Z,98676.00
2023-02-19T11:41:30.280Z,98678.00
2023-02-19T11:44:25.868Z,98678.00
2023-02-19T11:47:24.104Z,98671.00
2023-02-19T11:50:04.008Z,98686.00
2023-02-19T11:52:41.979Z,98686.00
2023-02-19T11:55:23.188Z,98700.00
2023-02-19T11:58:13.067Z,98688.00
2023-02-19T12:00:52.058Z,98694.00
2023-02-19T12:04:28.814Z,98701.00
2023-02-19T12:07:17.027Z,98702.00
2023-02-19T12:10:03.744Z,98710.00
2023-02-19T12:12:59.174Z,98720.00
2023-02-19T12:15:59.175Z,98719.00
2023-02-19T12:19:35.442Z,98721.00
2023-02-19T12:22:21.757Z,98722.00
2023-02-19T12:25:48.136Z,98728.00
2023-02-19T12:29:02.045Z,98721.00
2023-02-19T12:32:15.799Z,98729.00
2023-02-19T12:35:23.551Z,98731.00
2023-02-19T12:38:07.868Z,98737.00
2023-02-19T12:41:00.106Z,98742.00
2023-02-19T12:43:34.184Z,98743.00
2023-02-19T12:46:14.082Z,98756.00
2023-02-19T12:48:53.497Z,98750.00
2023-02-19T12:51:28.996Z,98750.00
2023-02-19T12:54:03.929Z,98756.00
2023-02-19T12:56:39.457Z,98754.00
2023-02-19T12:59:16.725Z,98769.00
2023-02-19T13:01:52.013Z,98763.00
2023-02-19T13:04:31.856Z,98761.00
2023-02-19T13:07:08.399Z,98760.00
2023-02-19T13:09:46.139Z,98770.00
2023-02-19T13:12:23.983Z,98771.00
2023-02-19T13:15:00.974Z,98778.00
2023-02-19T13:17:39.850Z,98777.00
2023-02-19T13:20:28.650Z,98787.00
2023-02-19T13:23:27.082Z,98786.00
2023-02-19T13:26:53.821Z,98793.00
2023-02-19T13:29:47.902Z,98791.00
2023-02-19T13:32:41.982Z,98797.00
2023-02-19T13:35:45.514Z,98808.00
2023-02-19T13:38:19.104Z,98791.00
2023-02-19T13:40:59.128Z,98809.00
2023-02-19T13:43:45.529Z,98801.00
2023-02-19T13:46:18.687Z,98813.00
2023-02-19T13:48:49.029Z,98815.00
2023-02-19T13:51:58.222Z,98811.00
2023-02-19T13:54:36.990Z,98819.00
2023-02-19T13:57:35.992Z,98814.00
2023-02-19T14:00:52.086Z,98813.00
2023-02-19T14:03:40.350Z,98825.00
2023-02-19T14:06:11.674Z,98823.00
2023-02-19T14:08:57.174Z,98827.00
2023-02-19T14:12:03.814Z,98826.00
2023-02-19T14:14:37.994Z,98831.00
2023-02-19T14:17:29.138Z,98843.00
2023-02-19T14:20:04.476Z,98848.00
2023-02-19T14:23:10.505Z,98853.00
2023-02-19T14:25:58.479Z,98852.00
2023-02-19T14:28:44.464Z,98855.00
2023-02-19T14:31:23.511Z,98858.00
2023-02-19T14:33:57.234Z,98865.00
2023-02-19T14:36:39.825Z,98867.00
2023-02-19T14:39:17.601Z,98867.00
2023-02-19T14:41:51.007Z,98874.00
2023-02-19T14:44:25.121Z,98880.00
2023-02-19T14:47:00.160Z,98874.00
2023-02-19T14:49:36.136Z,98882.00
2023-02-19T14:52:16.070Z,98885.00
2023-02-19T14:54:54.395Z,98879.00
2023-02-19T14:57:30.036Z,98883.00
2023-02-19T15:00:01.251Z,98879.00
2023-02-19T15:02:43.752Z,98885.00
2023-02-19T15:05:17.275Z,98880.00
2023-02-19T15:07:49.107Z,98891.00
2023-02-19T15:10:20.182Z,98883.00
2023-02-19T15:12:55.963Z,98887.00
2023-02-19T15:15:32.793Z,98886.00
2023-02-19T15:18:03.951Z,98890.00
2023-02-19T15:20:40.614Z,98893.00
2023-02-19T15:23:09.786Z,98892.00
2023-02-19T15:25:41.106Z,98893.00
2023-02-19T15:28:33.750Z,98898.00
2023-02-19T15:31:25.974Z,98896.00
2023-02-19T15:33:57.511Z,98901.00
2023-02-19T15:36:34.696Z,98904.00
2023-02-19T15:39:05.172Z,98906.00
2023-02-19T15:41:36.601Z,98918.00
2023-02-19T15:44:30.374Z,98914.00
2023-02-19T15:47:03.832Z,98915.00
2023-02-19T15:49:45.087Z,98910.00
2023-02-19T15:52:25.688Z,98907.00
2023-02-19T15:55:01.931Z,98920.00
2023-02-19T15:57:44.604Z,98911.00
2023-02-19T16:00:22.376Z,98927.00
2023-02-19T16:02:51.630Z,98928.00
2023-02-19T16:05:28.169Z,98919.00
2023-02-19T16:08:17.094Z,98931.00
2023-02-19T16:10:56.756Z,98936.00
2023-02-19T16:13:29.559Z,98931.00
2023-02-19T16:16:04.607Z,98928.00
2023-02-19T16:18:34.092Z,98941.00
2023-02-19T16:21:07.257Z,98941.00
2023-02-19T16:23:36.228Z,98939.00
2023-02-19T16:26:05.224Z,98947.00
2023-02-19T16:28:41.560Z,98945.00
2023-02-19T16:31:13.776Z,98954.00
2023-02-19T16:33:48.231Z,98955.00
2023-02-19T16:36:37.360Z,98961.00
2023-02-19T16:39:20.646Z,98966.00
2023-02-19T16:42:16.529Z,98968.00
2023-02-19T16:44:48.855Z,98958.00
2023-02-19T16:47:29.694Z,98968.00
2023-02-19T16:50:02.433Z,98968.00
2023-02-19T16:52:33.392Z,98958.00
2023-02-19T16:55:12.869Z,98974.00
2023-02-19T16:57:41.515Z,98966.00
2023-02-19T17:00:19.758Z,98968.00
2023-02-19T17:02:50.381Z,98971.00
2023-02-19T17:05:21.668Z,98984.00
2023-02-19T17:07:51.182Z,98984.00
2023-02-19T17:10:25.318Z,98988.00
2023-02-19T17:12:55.872Z,98991.00
2023-02-19T17:15:26.044Z,98999.00
2023-02-19T17:17:54.698Z,98997.00
2023-02-19T17:20:30.417Z,98992.00
2023-02-19T17:22:59.281Z,99001.00
2023-02-19T17:25:27.982Z,99002.00
2023-02-19T17:27:59.334Z,99005.00
2023-02-19T17:30:39.894Z,99005.00
2023-02-19T17:33:09.737Z,99010.00
2023-02-19T17:35:38.482Z,99006.00
2023-02-19T17:38:09.676Z,99021.00
2023-02-19T17:40:39.209Z,99015.00
2023-02-19T17:43:08.786Z,99015.00
2023-02-19T17:45:38.820Z,99021.00
2023-02-19T17:48:07.823Z,99021.00
2023-02-19T17:50:36.439Z,99027.00
2023-02-19T17:53:05.070Z,99020.00
2023-02-19T17:55:34.687Z,99031.00
2023-02-19T17:58:03.702Z,99025.00
2023-02-19T18:00:32.830Z,99028.00
2023-02-19T18:03:03.168Z,99028.00
2023-02-19T18:05:31.834Z,99038.00
2023-02-19T18:08:00.845Z,99032.00
2023-02-19T18:10:30.565Z,99049.00
2023-02-19T18:12:59.458Z,99042.00
2023-02-19T18:15:28.401Z,99049.00
2023-02-19T18:17:58.361Z,99049.00
2023-02-19T18:20:31.573Z,99037.00
2023-02-19T18:23:01.065Z,99051.00
2023-02-19T18:25:29.760Z,99048.00
2023-02-19T18:28:00.110Z,99052.00
2023-02-19T18:30:29.847Z,99050.00
2023-02-19T18:33:00.326Z,99061.00
2023-02-19T18:35:30.361Z,99059.00
2023-02-19T18:37:59.004Z,99068.00
2023-02-19T18:40:28.591Z,99070.00
2023-02-19T18:42:58.860Z,99073.00
2023-02-19T18:45:30.088Z,99078.00
2023-02-19T18:47:58.969Z,99076.00
2023-02-19T18:50:29.069Z,99067.00
2023-02-19T18:52:57.698Z,99078.00
2023-02-19T18:55:26.735Z,99084.00
2023-02-19T18:57:56.862Z,99083.00
2023-02-19T19:00:27.705Z,99080.00
2023-02-19T19:02:59.536Z,99089.00
2023-02-19T19:05:31.239Z,99085.00
2023-02-19T19:08:01.918Z,99089.00
2023-02-19T19:10:31.040Z,99092.00
2023-02-19T19:12:59.805Z,99096.00
2023-02-19T19:15:30.193Z,99100.00
2023-02-19T19:17:59.742Z,99094.00
2023-02-19T19:20:29.950Z,99109.00
2023-02-19T19:22:58.693Z,99102.00
2023-02-19T19:25:27.549Z,99117.00
2023-02-19T19:27:57.428Z,99115.00
2023-02-19T19:30:26.580Z,99110.00
2023-02-19T19:33:06.538Z,99112.00
2023-02-19T19:35:41.407Z,99120.00
2023-02-19T19:38:15.215Z,99114.00
2023-02-19T19:40:45.557Z,99115.00
2023-02-19T19:43:16.479Z,99124.00
2023-02-19T19:45:45.212Z,99134.00
2023-02-19T19:48:14.027Z,99124.00
2023-02-19T19:50:43.994Z,99137.00
2023-02-19T19:53:14.907Z,99131.00
2023-02-19T19:55:45.826Z,99135.00
2023-02-19T19:58:14.455Z,99147.00
2023-02-19T20:00:44.431Z,99150.00
2023-02-19T20:03:14.146Z,99150.00
2023-02-19T20:05:51.509Z,99155.00
2023-02-19T20:08:24.462Z,99153.00
2023-02-19T20:10:53.137Z,99150.00
2023-02-19T20:13:31.881Z,99146.00
2023-02-19T20:16:00.784Z,99136.00
2023-02-19T20:18:30.554Z,99147.00
2023-02-19T20:21:00.695Z,99161.00
2023-02-19T20:23:29.363Z,99155.00
2023-02-19T20:26:18.562Z,99155.00
2023-02-19T20:28:47.267Z,99146.00
2023-02-19T20:31:16.165Z,99158.00
2023-02-19T20:33:51.217Z,99167.00
2023-02-19T20:36:22.503Z,99174.00
2023-02-19T20:38:52.016Z,99176.00
2023-02-19T20:41:20.689Z,99172.00
2023-02-19T20:43:52.466Z,99173.00
2023-02-19T20:46:25.027Z,99168.00
2023-02-19T20:48:54.010Z,99181.00
2023-02-19T20:51:24.089Z,99186.00
2023-02-19T20:53:58.441Z,99187.00
2023-02-19T20:56:28.301Z,99189.00
2023-02-19T20:58:57.288Z,99202.00
2023-02-19T21:01:28.023Z,99200.00
2023-02-19T21:03:56.700Z,99208.00
2023-02-19T21:06:26.767Z,99214.00
2023-02-19T21:08:55.515Z,99215.00
2023-02-19T21:11:24.706Z,99221.00
2023-02-19T21:13:59.204Z,99215.00
2023-02-19T21:16:30.688Z,99225.00
2023-02-19T21:19:00.171Z,99220.00
2023-02-19T21:21:31.866Z,99219.00
2023-02-19T21:24:02.170Z,99228.00
2023-02-19T21:26:37.704Z,99219.00
2023-02-19T21:29:08.154Z,99234.00
2023-02-19T21:31:40.052Z,99234.00
2023-02-19T21:34:12.177Z,99245.00
2023-02-19T21:36:42.560Z,99232.00
2023-02-19T21:39:13.939Z,99247.00
2023-02-19T21:41:42.489Z,99250.00
2023-02-19T21:44:11.104Z,99249.00
2023-02-19T21:46:39.845Z,99244.00
2023-02-19T21:49:08.672Z,99258.00
2023-02-19T21:51:40.121Z,99260.00
2023-02-19T21:54:24.797Z,99261.00
2023-02-19T21:56:54.857Z,99259.00
2023-02-19T21:59:24.430Z,99263.00
2023-02-19T22:01:52.995Z,99262.00
2023-02-19T22:04:24.580Z,99269.00
2023-02-19T22:06:57.341Z,99263.00
2023-02-19T22:09:27.329Z,99275.00
2023-02-19T22:11:55.898Z,99273.00
2023-02-19T22:14:24.535Z,99269.00
2023-02-19T22:16:53.218Z,99278.00
2023-02-19T22:19:21.891Z,99282.00
2023-02-19T22:21:50.523Z,99286.00
2023-02-19T22:24:22.906Z,99282.00
2023-02-19T22:26:58.464Z,99282.00
2023-02-19T22:29:27.342Z,99293.00
2023-02-19T22:31:56.234Z,99287.00
2023-02-19T22:34:25.059Z,99297.00
2023-02-19T22:36:53.686Z,99289.00
2023-02-19T22:39:25.469Z,99289.00
2023-02-19T22:41:55.589Z,99300.00
2023-02-19T22:44:24.537Z,99300.00
2023-02-19T22:46:56.087Z,99306.00
2023-02-19T22:49:25.389Z,99311.00
2023-02-19T22:52:01.507Z,99311.00
2023-02-19T22:54:30.389Z,99317.00
2023-02-19T22:57:00.448Z,99325.00
2023-02-19T22:59:29.239Z,99325.00
2023-02-19T23:01:58.118Z,99333.00
2023-02-19T23:04:28.039Z,99325.00
2023-02-19T23:06:56.714Z,99335.00
2023-02-19T23:09:28.036Z,99332.00
2023-02-19T23:12:06.594Z,99328.00
2023-02-19T23:14:35.494Z,99333.00
2023-02-19T23:17:04.510Z,99330.00
2023-02-19T23:19:33.842Z,99329.00
2023-02-19T23:22:03.681Z,99329.00
2023-02-19T23:24:33.063Z,99336.00
2023-02-19T23:27:03.221Z,99338.00
2023-02-19T23:29:31.898Z,99348.00
2023-02-19T23:32:01.432Z,99331.00
2023-02-19T23:34:30.236Z,99339.00
2023-02-19T23:36:59.632Z,99338.00
2023-02-19T23:39:28.262Z,99345.00
2023-02-19T23:41:59.281Z,99345.00
2023-02-19T23:44:29.350Z,99350.00
2023-02-19T23:46:58.158Z,99363.00
2023-02-19T23:49:26.776Z,99368.00
2023-02-19T23:51:55.425Z,99375.00
2023-02-19T23:54:24.058Z,99376.00
2023-02-19T23:56:52.961Z,99378.00
2023-02-19T23:59:21.595Z,99378.00
